»·PEaware :: N757PC KWHP-KBFL

N757PC :: KWHP-KBFL

FLIGHT INFORMATION

Flight Status: Arrived
Operator: Privately registered:
United States
More flights under this callsign
Pilot: Duane J. (9702)
Aircraft: CESSNA 172 SKYHAWK
(C172)
More flights by this aircraft type
Origin: KWHP Whiteman
United States
Destination: KBFL Meadows
United States
More flights between these airports :: More routes between these airports
Route: + VNY LHS FASTO2
File this flight plan on PilotEdge
Remarks:
Altitude:
(Current/Filed)
10,500ft
Speed:
(Current/Filed)
110kts
Departed: 25-Sep-17 05:52 PM
Arrived: 25-Sep-17 06:48 PM
Distance/Time
Traveled:
77nm/0:56
Distance/Time
To Go:
Arrived

Flight Plot

Page will automatically refresh every two minutes.

Flight plan parsing failed; only flown route is shown


Map Options




Map Legend


Flown Route
Filed Route
Departure Airport
Arrival Airport
Navaid (VOR, NDB)
Fix

Horizontal Profiles

Position Reports

Time Latitude Longitude Heading Altitude Ground
Speed
25-Sep-17 17:41 34.260746 -118.413345 319 1006ft 0kts
25-Sep-17 17:42 34.260748 -118.413347 319 1006ft 0kts
25-Sep-17 17:43 34.260750 -118.413349 319 1006ft 0kts
25-Sep-17 17:44 34.260753 -118.413352 319 1006ft 0kts
25-Sep-17 17:45 34.260755 -118.413354 319 1006ft 0kts
25-Sep-17 17:46 34.260757 -118.413356 319 1006ft 0kts
25-Sep-17 17:47 34.260759 -118.413359 319 1006ft 0kts
25-Sep-17 17:48 34.260762 -118.413361 319 1006ft 0kts
25-Sep-17 17:49 34.260764 -118.413363 319 1006ft 0kts
25-Sep-17 17:50 34.260766 -118.413365 319 1006ft 0kts
25-Sep-17 17:51 34.260768 -118.413368 319 1006ft 0kts
25-Sep-17 17:52 34.260670 -118.413800 225 1006ft 8kts
25-Sep-17 17:53 34.258167 -118.411611 137 1006ft 16kts
25-Sep-17 17:54 34.255496 -118.408906 267 1006ft 0kts
25-Sep-17 17:55 34.255130 -118.408950 182 1006ft 4kts
25-Sep-17 17:56 34.265675 -118.421037 302 1344ft 85kts
25-Sep-17 17:57 34.268179 -118.447019 271 2229ft 79kts
25-Sep-17 17:58 34.270296 -118.474872 272 3059ft 81kts
25-Sep-17 17:59 34.258965 -118.489269 178 3923ft 72kts
25-Sep-17 18:00 34.237916 -118.489063 216 4586ft 82kts
25-Sep-17 18:01 34.248618 -118.504716 352 5220ft 87kts
25-Sep-17 18:02 34.272971 -118.509090 350 5855ft 87kts
25-Sep-17 18:03 34.296280 -118.513018 349 6538ft 82kts
25-Sep-17 18:04 34.317986 -118.516638 347 7203ft 75kts
25-Sep-17 18:05 34.339035 -118.520128 346 7802ft 75kts
25-Sep-17 18:06 34.360245 -118.523629 346 8346ft 79kts
25-Sep-17 18:07 34.381464 -118.527067 349 8846ft 76kts
25-Sep-17 18:08 34.404232 -118.530608 350 9259ft 86kts
25-Sep-17 18:09 34.428384 -118.534493 349 9661ft 88kts
25-Sep-17 18:10 34.453222 -118.538591 349 9993ft 95kts
25-Sep-17 18:11 34.480072 -118.543251 343 10009ft 96kts
25-Sep-17 18:12 34.506842 -118.547751 344 10015ft 97kts
25-Sep-17 18:13 34.533821 -118.552233 344 10018ft 98kts
25-Sep-17 18:14 34.560758 -118.556686 344 10023ft 97kts
25-Sep-17 18:15 34.587880 -118.561184 344 10035ft 99kts
25-Sep-17 18:16 34.615639 -118.565772 344 10033ft 101kts
25-Sep-17 18:17 34.643609 -118.570381 344 10045ft 101kts
25-Sep-17 18:18 34.671549 -118.575047 344 10046ft 101kts
25-Sep-17 18:19 34.694764 -118.589702 316 10048ft 96kts
25-Sep-17 18:20 34.715216 -118.609964 316 10073ft 95kts
25-Sep-17 18:21 34.735667 -118.630575 315 10083ft 96kts
25-Sep-17 18:22 34.756327 -118.651696 316 10087ft 97kts
25-Sep-17 18:23 34.777139 -118.672801 315 10091ft 97kts
25-Sep-17 18:24 34.797788 -118.693889 316 10086ft 96kts
25-Sep-17 18:25 34.818393 -118.714996 316 10090ft 97kts
25-Sep-17 18:26 34.839035 -118.736060 317 10093ft 95kts
25-Sep-17 18:27 34.859560 -118.756960 316 10083ft 95kts
25-Sep-17 18:28 34.879847 -118.777750 316 10080ft 95kts
25-Sep-17 18:29 34.900374 -118.798649 317 10083ft 97kts
25-Sep-17 18:30 34.921269 -118.820062 316 10072ft 97kts
25-Sep-17 18:31 34.941762 -118.841076 316 10072ft 96kts
25-Sep-17 18:32 34.962892 -118.862023 330 10068ft 100kts
25-Sep-17 18:33 34.991468 -118.861732 353 10066ft 103kts
25-Sep-17 18:34 35.022969 -118.861410 354 9633ft 121kts
25-Sep-17 18:35 35.057037 -118.861419 355 9090ft 114kts
25-Sep-17 18:36 35.090557 -118.861361 355 8284ft 121kts
25-Sep-17 18:37 35.124062 -118.861360 356 7501ft 120kts
25-Sep-17 18:38 35.154580 -118.861300 356 6798ft 120kts
25-Sep-17 18:39 35.188282 -118.861274 358 6006ft 121kts
25-Sep-17 18:40 35.220882 -118.861372 357 5176ft 113kts
25-Sep-17 18:41 35.251821 -118.861450 356 4388ft 110kts
25-Sep-17 18:42 35.279767 -118.870769 311 3591ft 108kts
25-Sep-17 18:43 35.300346 -118.895057 318 2874ft 116kts
25-Sep-17 18:44 35.321916 -118.922113 321 2509ft 110kts
25-Sep-17 18:45 35.343592 -118.947376 317 2503ft 98kts
25-Sep-17 18:46 35.359516 -118.966557 316 2466ft 75kts
25-Sep-17 18:47 35.375466 -118.985736 317 2079ft 84kts
25-Sep-17 18:48 35.390534 -119.003971 316 1661ft 68kts
25-Sep-17 18:49 35.404206 -119.020461 318 1300ft 71kts
25-Sep-17 18:50 35.418360 -119.037586 318 916ft 65kts
25-Sep-17 18:51 35.430478 -119.052184 318 589ft 61kts
25-Sep-17 18:52 35.436319 -119.057685 47 510ft 12kts
25-Sep-17 18:53 35.434842 -119.054182 42 510ft 12kts

Navigation Log

Ident Type
Flight plan parsing failed, navigation log unavailable